Time;durP1;ratioP1;P1;durP2;ratioP2;P2;SDS_P1;SDS_P2;PMS_P1;PMS_P2;Temp;Humidity;BMP_temperature;BMP_pressure;BME280_temperature;BME280_humidity;BME280_pressure;Samples;Min_cycle;Max_cycle;Signal;HPM_P1;HPM_P2
2022/11/19 00:00:23;;;;;;;15.33;7.77;;;;;;;-2.71;69.90;100556.19;1683160;83;21052;-72
2022/11/19 00:03:08;;;;;;;13.00;6.77;;;;;;;-2.77;69.87;100550.50;1682447;83;21288;-73
2022/11/19 00:05:53;;;;;;;10.68;6.90;;;;;;;-2.77;69.89;100563.55;1682611;83;21045;-73
2022/11/19 00:08:40;;;;;;;12.23;6.60;;;;;;;-2.81;69.90;100554.98;1683066;83;21584;-72
2022/11/19 00:14:29;;;;;;;8.65;5.47;;;;;;;-2.89;69.85;100560.57;1684928;83;20558;-72
2022/11/19 00:17:14;;;;;;;11.60;6.22;;;;;;;-2.95;69.89;100568.80;1686638;82;20962;-72
2022/11/19 00:19:59;;;;;;;8.37;6.20;;;;;;;-2.99;69.88;100572.02;1684518;83;20978;-72
2022/11/19 00:22:45;;;;;;;12.43;6.55;;;;;;;-3.04;69.89;100573.10;1683610;83;20894;-72
2022/11/19 00:25:30;;;;;;;9.05;6.28;;;;;;;-3.06;70.07;100568.39;1671586;84;20925;-73
2022/11/19 00:28:15;;;;;;;;;;;;;;;-3.10;69.89;100566.95;1686540;83;20913;-73
2022/11/19 00:31:10;;;;;;;8.35;5.67;;;;;;;-3.12;69.85;100577.44;1684915;83;20129;-73
2022/11/19 00:33:55;;;;;;;8.65;6.08;;;;;;;-3.18;69.79;100571.75;1684275;83;26457;-72
2022/11/19 00:36:40;;;;;;;13.45;6.22;;;;;;;-3.24;69.83;100565.59;1682150;83;20922;-72
2022/11/19 00:39:25;;;;;;;9.13;5.57;;;;;;;-3.28;69.82;100568.80;1683508;83;22023;-73
2022/11/19 00:42:10;;;;;;;8.93;5.78;;;;;;;-3.30;69.87;100570.01;1688513;83;20917;-73
2022/11/19 00:44:55;;;;;;;10.63;6.07;;;;;;;-3.36;69.78;100576.09;1683666;83;20989;-72
2022/11/19 00:47:40;;;;;;;8.63;5.42;;;;;;;-3.43;69.86;100571.19;1684014;83;20930;-72
2022/11/19 00:50:25;;;;;;;9.97;5.13;;;;;;;-3.45;69.85;100563.09;1683110;83;21485;-72
2022/11/19 00:53:10;;;;;;;9.70;6.47;;;;;;;-3.47;69.78;100574.41;1685965;83;21339;-72
2022/11/19 00:56:00;;;;;;;11.63;5.97;;;;;;;-3.54;69.76;100566.11;1684999;83;21366;-72
2022/11/19 00:58:47;;;;;;;15.78;6.50;;;;;;;-3.58;69.71;100577.30;1683614;83;20973;-72
2022/11/19 01:01:32;;;;;;;8.85;6.12;;;;;;;-3.64;69.73;100572.90;1685730;83;21331;-72
2022/11/19 01:04:17;;;;;;;13.45;5.92;;;;;;;-3.68;69.78;100569.78;1684387;83;20901;-73
2022/11/19 01:07:02;;;;;;;13.72;6.40;;;;;;;-3.71;69.77;100572.19;1683850;83;20902;-72
2022/11/19 01:09:47;;;;;;;12.23;6.83;;;;;;;-3.73;69.79;100568.73;1686646;82;20949;-72
2022/11/19 01:13:33;;;;;;;8.53;5.57;;;;;;;-3.75;69.65;100568.67;1687980;82;20949;-72
2022/11/19 01:15:18;;;;;;;7.95;5.75;;;;;;;-3.75;69.65;100568.67;1685897;83;21461;-72
2022/11/19 01:18:03;;;;;;;9.00;6.20;;;;;;;-3.77;69.71;100575.73;1692221;83;21067;-72
2022/11/19 01:20:48;;;;;;;10.90;6.35;;;;;;;-3.86;69.66;100569.91;1685262;83;21157;-72
2022/11/19 01:23:34;;;;;;;10.20;6.08;;;;;;;-3.92;69.70;100571.31;1685285;83;21897;-72
2022/11/19 01:26:19;;;;;;;7.70;5.95;;;;;;;-3.95;69.72;100568.26;1684878;83;20957;-72
2022/11/19 01:29:03;;;;;;;8.05;5.40;;;;;;;-3.96;69.75;100572.84;1683072;82;205291;-72
2022/11/19 01:31:48;;;;;;;9.40;5.72;;;;;;;-3.97;69.74;100569.86;1695773;83;20925;-72
2022/11/19 01:34:33;;;;;;;11.80;6.13;;;;;;;-4.00;69.71;100569.73;1687819;83;21876;-72
2022/11/19 01:37:18;;;;;;;8.10;5.57;;;;;;;-4.02;69.73;100569.67;1686746;80;21513;-73
2022/11/19 01:40:04;;;;;;;8.55;5.35;;;;;;;-4.08;69.67;100578.65;1687533;83;22134;-72
2022/11/19 01:42:49;;;;;;;10.63;5.85;;;;;;;-4.10;69.74;100581.50;1686116;83;20910;-72
2022/11/19 01:45:47;;;;;;;9.33;5.90;;;;;;;-4.15;69.66;100583.84;1685345;83;21352;-72
2022/11/19 01:48:33;;;;;;;9.50;5.60;;;;;;;-4.19;69.68;100574.44;1688636;83;21513;-72
2022/11/19 01:51:41;;;;;;;10.75;5.47;;;;;;;-4.23;69.67;100569.20;1689170;83;21243;-72
2022/11/19 01:54:40;;;;;;;7.65;5.95;;;;;;;-4.26;69.73;100567.41;1683654;83;20938;-72
2022/11/19 01:57:25;;;;;;;9.38;5.67;;;;;;;-4.28;69.73;100570.66;1686797;83;20934;-72
2022/11/19 02:00:12;;;;;;;8.03;5.70;;;;;;;-4.30;69.64;100583.22;1686460;83;21422;-72
2022/11/19 02:02:56;;;;;;;11.12;6.30;;;;;;;-4.34;69.66;100585.14;1689172;83;21653;-72
2022/11/19 02:05:42;;;;;;;9.63;6.05;;;;;;;-4.38;69.65;100585.41;1687244;83;20963;-72
2022/11/19 02:08:41;;;;;;;10.38;5.60;;;;;;;-4.40;69.67;100587.40;1685383;81;20906;-72
2022/11/19 02:11:46;;;;;;;7.47;5.28;;;;;;;-4.39;69.64;100592.91;1687342;83;20945;-72
2022/11/19 02:15:08;;;;;;;11.88;5.80;;;;;;;-4.47;69.50;100590.45;1684453;83;20921;-72
2022/11/19 02:18:28;;;;;;;8.50;5.60;;;;;;;-4.47;69.70;100586.67;1685077;83;20974;-72
2022/11/19 02:21:39;;;;;;;7.50;5.28;;;;;;;-4.49;69.63;100586.60;1622209;86;21377;-72
2022/11/19 02:24:38;;;;;;;9.25;5.40;;;;;;;-4.59;69.55;100584.47;1684278;83;20894;-72
2022/11/19 02:27:49;;;;;;;11.48;6.15;;;;;;;-4.60;69.67;100590.31;1671447;84;21486;-72
2022/11/19 02:30:43;;;;;;;9.10;5.72;;;;;;;-4.60;69.61;100595.76;1669505;84;21490;-72
2022/11/19 02:33:58;;;;;;;12.78;6.08;;;;;;;-4.66;69.49;100598.87;1670975;84;20914;-72
2022/11/19 02:36:49;;;;;;;;;;;;;;;-4.71;69.49;100598.70;1676595;84;20891;-72
2022/11/19 02:39:55;;;;;;;13.15;5.22;;;;;;;-4.72;69.54;100604.53;1663962;84;20465;-72
2022/11/19 02:42:57;;;;;;;9.10;5.78;;;;;;;-4.71;69.54;100602.87;1673916;84;21554;-72
2022/11/19 02:45:50;;;;;;;8.95;5.37;;;;;;;-4.78;69.39;100601.73;1668676;84;20942;-72
2022/11/19 02:48:39;;;;;;;9.53;5.55;;;;;;;-4.83;69.50;100594.36;1662002;84;21006;-72
2022/11/19 02:51:25;;;;;;;11.08;6.30;;;;;;;-4.83;69.52;100603.19;1671590;84;20958;-72
2022/11/19 02:54:09;;;;;;;9.40;6.15;;;;;;;-4.83;69.61;100599.41;1673056;84;21296;-72
2022/11/19 02:57:01;;;;;;;11.73;5.43;;;;;;;-4.85;69.55;100595.09;1670629;84;21361;-72
2022/11/19 03:06:22;;;;;;;10.98;6.25;;;;;;;-4.85;69.52;100593.83;1671346;83;20911;-72
2022/11/19 03:09:07;;;;;;;8.55;6.28;;;;;;;-5.02;69.16;100575.02;1670472;83;21000;-73
2022/11/19 03:12:09;;;;;;;14.00;6.22;;;;;;;-5.02;69.16;100575.02;1672293;83;21364;-72
2022/11/19 03:18:19;;;;;;;10.95;6.58;;;;;;;-5.02;69.38;100601.88;1674491;84;21458;-72
2022/11/19 03:21:21;;;;;;;11.70;6.85;;;;;;;-5.05;69.46;100593.78;1679560;84;20933;-72
2022/11/19 03:24:37;;;;;;;12.13;6.85;;;;;;;-5.16;69.47;100571.00;1674549;84;20904;-72
2022/11/19 03:27:41;;;;;;;11.83;6.72;;;;;;;-5.04;69.49;100598.03;1676515;84;21882;-72
2022/11/19 03:30:28;;;;;;;9.38;6.50;;;;;;;-5.05;69.46;100596.70;1678931;83;20936;-72
2022/11/19 03:33:23;;;;;;;11.50;6.78;;;;;;;-5.06;69.49;100599.61;1675726;84;20929;-72
2022/11/19 03:36:12;;;;;;;11.50;6.92;;;;;;;-5.06;69.45;100600.01;1674550;83;20908;-72
2022/11/19 03:39:02;;;;;;;14.28;6.67;;;;;;;-5.10;69.52;100596.88;1676338;84;20879;-72
2022/11/19 03:41:50;;;;;;;13.60;7.00;;;;;;;-5.10;69.52;100596.88;1676438;84;20887;-72
2022/11/19 03:44:49;;;;;;;14.87;7.47;;;;;;;-5.28;69.36;100574.23;1674669;84;21002;-72
2022/11/19 03:47:37;;;;;;;13.32;7.20;;;;;;;-5.23;69.32;100603.04;1675459;82;21464;-72
2022/11/19 03:50:52;;;;;;;15.63;7.12;;;;;;;-5.23;69.42;100598.39;1610263;87;20925;-72
2022/11/19 03:53:37;;;;;;;;;;;;;;;-5.25;69.40;100599.58;1639890;85;21003;-72
2022/11/19 03:56:25;;;;;;;10.13;5.77;;;;;;;-5.29;69.35;100608.19;1640087;85;20142;-72
2022/11/19 03:59:11;;;;;;;13.60;6.75;;;;;;;-5.30;69.40;100608.98;1639931;85;20976;-72
2022/11/19 04:02:01;;;;;;;11.80;6.60;;;;;;;-5.30;69.37;100619.92;1632069;86;20983;-72
2022/11/19 04:04:45;;;;;;;15.53;7.65;;;;;;;-5.35;69.37;100613.80;1640147;86;20961;-72
2022/11/19 04:07:30;;;;;;;12.20;7.17;;;;;;;-5.35;69.37;100613.80;1640574;85;20936;-72
2022/11/19 04:10:16;;;;;;;10.15;5.20;;;;;;;-5.36;69.42;100615.45;1639989;84;21885;-72
2022/11/19 04:13:01;;;;;;;10.75;6.80;;;;;;;-5.35;69.44;100617.19;1639370;86;20946;-72
2022/11/19 04:15:45;;;;;;;16.00;8.05;;;;;;;-5.36;69.33;100616.72;1641395;86;20936;-73
2022/11/19 04:18:31;;;;;;;9.10;5.40;;;;;;;-5.41;69.38;100604.30;1639632;86;21016;-73
2022/11/19 04:21:15;;;;;;;11.43;7.33;;;;;;;-5.46;69.28;100603.21;1635487;86;21232;-72
2022/11/19 04:24:00;;;;;;;12.88;7.17;;;;;;;-5.47;69.35;100606.91;1632620;85;21370;-72
2022/11/19 04:26:45;;;;;;;16.80;7.97;;;;;;;-5.49;69.34;100601.80;1652794;85;20916;-72
2022/11/19 04:29:30;;;;;;;13.97;6.70;;;;;;;-5.50;69.30;100595.44;1650315;85;20925;-72
2022/11/19 04:32:16;;;;;;;15.88;7.12;;;;;;;-5.53;69.24;100593.63;1652097;85;21243;-72
2022/11/19 04:35:00;;;;;;;11.08;7.03;;;;;;;-5.55;69.30;100591.83;1649958;85;20979;-72
2022/11/19 04:37:45;;;;;;;12.58;7.08;;;;;;;-5.64;69.26;100579.66;1651267;84;21794;-72
2022/11/19 04:40:30;;;;;;;11.68;6.12;;;;;;;-5.59;69.30;100589.56;1684126;83;20961;-72
2022/11/19 04:43:15;;;;;;;13.53;6.45;;;;;;;-5.57;69.42;100587.11;1686825;82;21501;-72
2022/11/19 04:46:01;;;;;;;13.00;6.75;;;;;;;-5.56;69.47;100582.15;1685219;83;21410;-72
2022/11/19 04:48:45;;;;;;;15.70;7.67;;;;;;;-5.53;69.45;100574.73;1687846;83;20980;-73
2022/11/19 04:51:30;;;;;;;13.60;7.28;;;;;;;-5.49;69.51;100571.97;1687588;83;21169;-72
2022/11/19 04:54:15;;;;;;;16.42;7.67;;;;;;;-5.52;69.35;100573.95;1685498;83;20961;-73
2022/11/19 04:57:00;;;;;;;10.23;5.17;;;;;;;-5.55;69.35;100571.68;1686557;83;21511;-73
2022/11/19 04:59:45;;;;;;;16.63;7.97;;;;;;;-5.56;69.43;100570.81;1691333;83;20902;-72
2022/11/19 05:02:30;;;;;;;20.43;10.50;;;;;;;-5.54;69.43;100567.11;1694674;83;21297;-72
2022/11/19 05:05:15;;;;;;;14.97;7.13;;;;;;;-5.54;69.48;100568.38;1683695;83;20950;-72
2022/11/19 05:08:00;;;;;;;14.70;7.33;;;;;;;-5.51;69.60;100569.77;1683664;83;21470;-72
2022/11/19 05:10:45;;;;;;;15.72;8.30;;;;;;;-5.48;69.61;100568.27;1684717;83;20969;-72
2022/11/19 05:13:30;;;;;;;15.98;8.45;;;;;;;-5.43;69.64;100567.22;1686225;83;20988;-72
2022/11/19 05:16:15;;;;;;;14.00;7.08;;;;;;;-5.37;69.62;100563.73;1686764;83;20898;-72
2022/11/19 05:19:00;;;;;;;25.80;11.68;;;;;;;-5.31;69.63;100568.19;1684210;83;21015;-72
2022/11/19 05:21:45;;;;;;;20.52;9.75;;;;;;;-5.31;69.78;100564.02;1684092;83;20933;-72
2022/11/19 05:24:30;;;;;;;29.50;14.58;;;;;;;-5.26;69.81;100564.23;1684148;83;20945;-72
2022/11/19 05:27:15;;;;;;;31.33;14.90;;;;;;;-5.24;69.81;100563.51;1683754;83;21365;-73
2022/11/19 05:30:00;;;;;;;28.98;14.47;;;;;;;-5.22;69.80;100563.58;1681335;83;20937;-72
2022/11/19 05:32:46;;;;;;;27.07;13.83;;;;;;;-5.15;69.92;100553.81;1686895;83;21442;-72
2022/11/19 05:35:31;;;;;;;25.77;12.28;;;;;;;-5.04;69.76;100550.13;1685170;83;20932;-73
2022/11/19 05:38:17;;;;;;;26.50;12.25;;;;;;;-5.04;69.76;100550.13;1686209;83;20917;-73
2022/11/19 05:41:02;;;;;;;26.55;10.50;;;;;;;-5.01;69.81;100550.66;1683722;83;20909;-72
2022/11/19 05:43:47;;;;;;;32.50;14.67;;;;;;;-4.98;69.87;100552.46;1682012;83;20925;-72
2022/11/19 05:46:32;;;;;;;32.05;15.48;;;;;;;-4.97;69.89;100548.75;1683753;83;20882;-72
2022/11/19 05:49:17;;;;;;;31.73;15.70;;;;;;;-4.98;69.91;100553.33;1682389;83;21052;-73
2022/11/19 05:52:02;;;;;;;28.17;13.45;;;;;;;-4.95;70.01;100563.95;1681549;83;20957;-73
2022/11/19 05:54:47;;;;;;;32.93;15.38;;;;;;;-4.93;69.95;100564.48;1683237;83;21480;-73
2022/11/19 05:57:32;;;;;;;32.38;12.15;;;;;;;-4.90;69.96;100559.58;1688066;82;21028;-73
2022/11/19 06:00:18;;;;;;;32.03;13.85;;;;;;;-4.87;69.95;100555.93;1690390;82;20949;-73
2022/11/19 06:03:02;;;;;;;31.60;15.43;;;;;;;-4.87;69.94;100557.19;1689235;82;21624;-73
2022/11/19 06:05:47;;;;;;;23.93;10.83;;;;;;;-4.83;70.05;100551.48;1689669;83;21560;-73
2022/11/19 06:08:33;;;;;;;29.37;13.50;;;;;;;-4.79;70.00;100555.02;1691007;83;21983;-73
2022/11/19 06:14:24;;;;;;;23.90;11.85;;;;;;;-4.73;70.08;100553.62;1691612;83;20902;-73
2022/11/19 06:17:09;;;;;;;27.95;11.57;;;;;;;-4.69;70.12;100555.88;1684817;83;20894;-73
2022/11/19 06:19:53;;;;;;;23.50;12.15;;;;;;;-4.65;70.14;100560.23;1683041;83;20913;-73
2022/11/19 06:22:39;;;;;;;24.40;12.63;;;;;;;-4.62;70.14;100562.89;1683560;83;20985;-73
2022/11/19 06:25:23;;;;;;;21.33;11.63;;;;;;;-4.59;70.19;100560.50;1683568;83;21044;-73
2022/11/19 06:28:08;;;;;;;22.48;12.10;;;;;;;-4.54;70.14;100570.80;1682905;83;21333;-73
2022/11/19 06:30:53;;;;;;;21.70;11.63;;;;;;;-4.53;70.14;100569.60;1681686;84;20979;-73
2022/11/19 06:33:38;;;;;;;18.92;9.78;;;;;;;-4.50;70.20;100565.95;1682294;83;20913;-73
2022/11/19 06:36:23;;;;;;;18.95;11.45;;;;;;;-4.45;70.21;100566.15;1682455;83;21028;-73
2022/11/19 06:39:09;;;;;;;22.98;12.63;;;;;;;-4.40;70.24;100565.95;1680791;83;21093;-73
2022/11/19 06:42:34;;;;;;;22.58;12.20;;;;;;;-4.36;70.24;100561.50;1686587;83;21041;-72
2022/11/19 06:44:40;;;;;;;20.32;11.43;;;;;;;-4.34;70.28;100560.77;1687559;83;21608;-73
2022/11/19 06:47:25;;;;;;;25.30;12.15;;;;;;;-4.26;70.37;100560.23;1687596;83;21055;-73
2022/11/19 06:50:10;;;;;;;23.02;11.55;;;;;;;-4.20;70.36;100565.14;1686718;83;21125;-73
2022/11/19 06:52:55;;;;;;;25.50;11.90;;;;;;;-4.12;70.42;100566.69;1685946;82;21064;-74
2022/11/19 06:55:40;;;;;;;26.52;12.40;;;;;;;-4.06;70.45;100571.59;1686949;83;21037;-73
2022/11/19 06:58:26;;;;;;;19.73;11.05;;;;;;;-4.00;70.45;100572.26;1685273;83;21072;-74
2022/11/19 07:01:11;;;;;;;18.50;8.88;;;;;;;-3.94;70.50;100569.98;1687193;83;21100;-73
2022/11/19 07:03:56;;;;;;;21.23;10.48;;;;;;;-3.87;70.58;100563.52;1688108;83;21100;-73
2022/11/19 07:06:41;;;;;;;19.48;10.93;;;;;;;-3.79;70.55;100566.83;1689747;83;21104;-73
2022/11/19 07:09:26;;;;;;;21.12;12.35;;;;;;;-3.69;70.61;100570.19;1689176;82;21045;-73
2022/11/19 07:12:11;;;;;;;20.52;12.60;;;;;;;-3.61;70.70;100575.52;1689727;83;21088;-73
2022/11/19 07:14:56;;;;;;;27.07;13.43;;;;;;;-3.54;70.68;100563.59;1689200;83;21135;-73
2022/11/19 07:17:41;;;;;;;22.45;13.13;;;;;;;-3.45;70.76;100575.73;1683412;82;20975;-73
2022/11/19 07:20:27;;;;;;;32.35;15.30;;;;;;;-3.37;70.79;100571.44;1681502;83;21053;-73
2022/11/19 07:23:12;;;;;;;25.82;15.03;;;;;;;-3.49;70.77;100541.02;1679452;83;21017;-73
2022/11/19 07:26:01;;;;;;;33.50;16.55;;;;;;;-3.22;70.87;100575.36;1680614;84;21606;-73
2022/11/19 07:28:46;;;;;;;33.53;17.35;;;;;;;-3.15;70.88;100568.47;1669955;84;21104;-73
2022/11/19 07:31:32;;;;;;;34.40;16.40;;;;;;;-3.05;70.94;100569.25;1673690;83;20988;-73
2022/11/19 07:34:17;;;;;;;27.10;15.40;;;;;;;-2.95;70.99;100568.80;1668782;85;21040;-73
2022/11/19 07:37:02;;;;;;;31.95;17.37;;;;;;;-2.84;71.01;100566.26;1667628;84;21103;-73
2022/11/19 07:39:47;;;;;;;30.97;17.40;;;;;;;-2.74;71.05;100567.05;1668669;84;21034;-73
2022/11/19 07:42:51;;;;;;;32.83;17.10;;;;;;;-2.64;71.04;100558.13;1669783;84;21078;-73
2022/11/19 07:45:37;;;;;;;27.52;15.60;;;;;;;-2.54;71.08;100563.09;1665168;84;21085;-73
2022/11/19 07:48:22;;;;;;;34.00;16.17;;;;;;;-2.44;71.08;100565.14;1668679;83;21074;-73
2022/11/19 07:51:07;;;;;;;31.93;14.83;;;;;;;-2.39;71.08;100559.43;1668691;84;21613;-74
2022/11/19 07:53:53;;;;;;;24.23;14.20;;;;;;;-2.35;71.11;100557.87;1667489;83;21705;-73
2022/11/19 07:56:38;;;;;;;27.60;14.65;;;;;;;-2.34;71.13;100555.39;1675243;84;21067;-73
2022/11/19 07:59:25;;;;;;;27.37;14.93;;;;;;;-2.26;71.21;100555.66;1678820;83;21083;-74
2022/11/19 08:02:12;;;;;;;28.10;15.48;;;;;;;-2.19;71.24;100552.93;1673994;82;21081;-73
2022/11/19 08:04:56;;;;;;;26.70;14.10;;;;;;;-2.15;71.19;100550.95;1668891;83;21015;-73
2022/11/19 08:07:42;;;;;;;26.63;13.37;;;;;;;-2.12;71.21;100545.59;1675299;82;21095;-73
2022/11/19 08:10:27;;;;;;;22.87;12.95;;;;;;;-2.07;71.33;100544.05;1674506;83;21126;-74
2022/11/19 08:13:12;;;;;;;21.82;12.82;;;;;;;-2.04;71.34;100546.68;1675139;84;21068;-74
2022/11/19 08:16:03;;;;;;;26.87;12.03;;;;;;;-2.01;71.33;100548.05;1675628;83;21084;-73
2022/11/19 08:18:48;;;;;;;20.55;10.90;;;;;;;-1.96;71.35;100543.13;1675462;83;21081;-73
2022/11/19 08:21:33;;;;;;;21.53;12.93;;;;;;;-1.92;71.42;100537.36;1674025;84;21036;-74
2022/11/19 08:24:20;;;;;;;20.23;10.85;;;;;;;-1.86;71.41;100541.77;1675308;84;21319;-73
2022/11/19 08:27:05;;;;;;;17.50;10.90;;;;;;;-1.79;71.52;100533.55;1675461;84;21097;-74
2022/11/19 08:29:49;;;;;;;23.32;11.90;;;;;;;-1.68;71.52;100528.42;1672635;84;21518;-73
2022/11/19 08:32:36;;;;;;;21.17;11.05;;;;;;;-1.56;71.59;100522.44;1673678;84;21115;-74
2022/11/19 08:35:21;;;;;;;19.05;10.10;;;;;;;-1.42;71.56;100519.06;1677178;83;21120;-73
2022/11/19 08:38:06;;;;;;;20.17;10.53;;;;;;;-1.33;71.57;100516.81;1608923;87;22151;-73
2022/11/19 08:42:58;;;;;;;18.67;10.30;;;;;;;-1.23;71.62;100515.00;1612626;87;21111;-73
2022/11/19 08:43:41;;;;;;;17.52;10.55;;;;;;;-1.12;71.67;100514.05;1606267;86;21307;-74
2022/11/19 08:46:26;;;;;;;16.27;10.43;;;;;;;-1.01;71.71;100507.17;1607667;87;21130;-73
2022/11/19 08:49:11;;;;;;;15.88;9.88;;;;;;;-0.94;71.64;100495.52;1636900;86;21091;-74
2022/11/19 08:51:57;;;;;;;18.75;10.93;;;;;;;-0.84;71.75;100505.12;1633247;85;21114;-74
2022/11/19 08:54:42;;;;;;;19.80;11.63;;;;;;;-0.70;71.78;100513.12;1633105;86;21131;-74
2022/11/19 08:57:27;;;;;;;17.93;11.40;;;;;;;-0.57;71.81;100506.28;1630828;85;21194;-75
2022/11/19 09:00:13;;;;;;;14.20;9.48;;;;;;;-0.46;71.76;100501.46;1634297;85;21702;-75
2022/11/19 09:02:58;;;;;;;15.13;10.25;;;;;;;-0.42;71.69;100503.27;1635624;86;21691;-74
2022/11/19 09:05:43;;;;;;;16.70;10.23;;;;;;;-0.39;71.69;100501.66;1634883;86;21671;-75
2022/11/19 09:08:29;;;;;;;14.83;10.13;;;;;;;-0.40;71.69;100507.56;1634329;85;21797;-75
2022/11/19 09:11:18;;;;;;;14.00;10.05;;;;;;;-0.38;71.66;100502.53;1636063;86;21552;-74
2022/11/19 09:14:03;;;;;;;13.60;9.40;;;;;;;-0.39;71.67;100504.62;1636360;85;21033;-74
2022/11/19 09:16:48;;;;;;;14.63;9.65;;;;;;;-0.38;71.73;100505.92;1635704;85;21107;-74
2022/11/19 09:19:33;;;;;;;14.73;10.05;;;;;;;-0.33;71.74;100499.70;1617294;86;21102;-74
2022/11/19 09:22:18;;;;;;;18.00;9.88;;;;;;;-0.32;71.70;100495.06;1638159;85;21127;-73
2022/11/19 09:25:04;;;;;;;16.02;9.90;;;;;;;-0.34;71.66;100499.25;1637475;86;21071;-73
2022/11/19 09:27:49;;;;;;;13.72;8.93;;;;;;;-0.33;71.79;100498.42;1642505;84;21036;-73
2022/11/19 09:30:34;;;;;;;14.38;9.05;;;;;;;-0.28;71.79;100495.59;1646752;85;21635;-74
2022/11/19 09:33:19;;;;;;;15.67;10.27;;;;;;;-0.21;71.81;100487.72;1651953;84;21098;-74
2022/11/19 09:36:05;;;;;;;18.32;10.50;;;;;;;-0.14;71.82;100484.52;1652831;85;21119;-73
2022/11/19 09:38:54;;;;;;;15.55;9.63;;;;;;;-0.10;71.77;100482.50;1652450;85;21566;-73
2022/11/19 09:41:47;;;;;;;16.27;9.83;;;;;;;-0.10;71.77;100478.27;1652506;85;21071;-72
2022/11/19 09:44:52;;;;;;;16.52;9.78;;;;;;;-0.04;71.80;100472.48;1647021;85;21417;-73
2022/11/19 09:48:08;;;;;;;22.70;11.38;;;;;;;0.03;71.79;100459.07;1649158;85;21082;-73
2022/11/19 09:50:59;;;;;;;18.98;10.98;;;;;;;0.09;71.84;100462.17;1651764;85;21489;-73
2022/11/19 09:53:52;;;;;;;15.90;9.65;;;;;;;0.18;71.70;100460.70;1649513;83;21130;-74
2022/11/19 09:56:44;;;;;;;16.35;10.30;;;;;;;0.25;71.88;100452.80;1647007;84;21107;-73
2022/11/19 09:59:39;;;;;;;18.60;10.65;;;;;;;0.27;71.84;100449.89;1644621;85;21142;-73
2022/11/19 10:02:23;;;;;;;16.37;9.45;;;;;;;0.28;71.82;100444.84;1646449;85;21457;-74
2022/11/19 10:05:15;;;;;;;15.30;9.00;;;;;;;0.30;71.82;100434.29;1650746;84;21102;-74
2022/11/19 10:08:17;;;;;;;15.88;10.08;;;;;;;0.31;71.83;100422.44;1647722;85;21106;-73
2022/11/19 10:11:28;;;;;;;12.40;8.93;;;;;;;0.34;71.83;100427.59;1648323;85;21098;-73
2022/11/19 10:14:40;;;;;;;16.52;10.00;;;;;;;0.38;71.85;100423.43;1681657;82;21056;-76
2022/11/19 10:18:21;;;;;;;15.48;8.83;;;;;;;0.41;71.81;100430.72;1681015;83;21049;-74
2022/11/19 10:21:17;;;;;;;15.85;8.88;;;;;;;0.37;71.68;100424.25;1648334;84;21071;-76
2022/11/19 10:24:11;;;;;;;14.50;8.65;;;;;;;0.32;71.51;100416.52;1643644;85;21103;-76
2022/11/19 10:27:03;;;;;;;14.63;7.87;;;;;;;0.29;71.62;100407.14;1643785;84;21106;-76
2022/11/19 10:29:51;;;;;;;12.05;7.90;;;;;;;0.32;71.71;100405.94;1642559;85;21063;-76
2022/11/19 10:32:42;;;;;;;14.45;8.18;;;;;;;0.33;71.67;100405.52;1643022;85;21119;-76
2022/11/19 10:35:41;;;;;;;10.95;7.80;;;;;;;0.30;71.56;100397.42;1581182;88;21101;-76
2022/11/19 10:38:43;;;;;;;16.27;7.97;;;;;;;0.25;71.45;100395.19;1607828;87;21445;-76
2022/11/19 10:41:41;;;;;;;13.40;7.00;;;;;;;0.20;71.38;100387.87;1598278;85;21133;-76
2022/11/19 10:44:40;;;;;;;12.10;7.72;;;;;;;0.18;71.41;100394.60;1597765;87;21073;-76
2022/11/19 10:47:43;;;;;;;12.45;7.37;;;;;;;0.18;71.47;100388.66;1599851;87;21900;-76
2022/11/19 10:50:28;;;;;;;10.35;7.08;;;;;;;0.16;71.47;100382.68;1607308;85;21016;-76
2022/11/19 10:53:30;;;;;;;14.47;6.95;;;;;;;0.17;71.44;100386.94;1648105;85;21573;-77
2022/11/19 10:56:20;;;;;;;13.30;7.37;;;;;;;0.13;71.20;100386.02;1648523;84;21433;-76
2022/11/19 10:59:15;;;;;;;10.78;6.55;;;;;;;0.10;71.29;100385.09;1647660;85;21456;-76
2022/11/19 11:02:03;;;;;;;9.75;5.80;;;;;;;0.09;71.23;100394.39;1646106;85;21142;-76
2022/11/19 11:05:11;;;;;;;10.85;7.20;;;;;;;0.07;71.14;100383.75;1647075;85;21445;-76
2022/11/19 11:07:59;;;;;;;9.78;6.08;;;;;;;0.03;71.15;100389.58;1650455;85;21610;-76
2022/11/19 11:10:48;;;;;;;10.63;5.55;;;;;;;-0.01;71.06;100392.50;1645952;85;21112;-78
2022/11/19 11:16:47;;;;;;;11.43;5.92;;;;;;;-0.09;71.00;100382.16;1620787;87;21716;-75
2022/11/19 11:19:33;;;;;;;12.20;6.70;;;;;;;-0.13;71.17;100389.26;1620762;86;21146;-76
2022/11/19 11:22:19;;;;;;;13.88;6.55;;;;;;;-0.13;71.24;100380.78;1681853;83;21133;-75
2022/11/19 11:25:24;;;;;;;12.90;6.33;;;;;;;-0.13;71.21;100380.36;1681459;83;21466;-75
2022/11/19 11:28:15;;;;;;;8.58;4.72;;;;;;;-0.18;71.14;100381.94;1683647;83;21562;-76
2022/11/19 11:31:08;;;;;;;8.13;4.30;;;;;;;-0.26;71.31;100396.55;1687542;83;21102;-76
2022/11/19 11:33:56;;;;;;;6.72;4.62;;;;;;;-0.33;71.39;100413.33;1682334;82;21014;-76
2022/11/19 11:36:43;;;;;;;6.30;4.33;;;;;;;-0.46;71.47;100402.00;1674605;83;21073;-76
2022/11/19 11:39:36;;;;;;;6.10;3.98;;;;;;;-0.57;71.56;100400.05;1686778;82;20961;-76
2022/11/19 11:42:25;;;;;;;6.28;4.10;;;;;;;-0.64;71.65;100409.19;1625478;86;21009;-76
2022/11/19 11:45:24;;;;;;;7.92;5.05;;;;;;;-0.74;71.66;100404.28;1650409;85;20989;-76
2022/11/19 11:48:19;;;;;;;8.65;4.92;;;;;;;-0.84;71.83;100398.51;1648946;85;20998;-76
2022/11/19 11:51:04;;;;;;;7.05;5.35;;;;;;;-0.90;71.90;100402.56;1650803;85;21282;-76
2022/11/19 11:54:02;;;;;;;7.40;5.12;;;;;;;-0.93;72.06;100403.75;1650143;85;21308;-77
2022/11/19 11:56:47;;;;;;;7.10;5.15;;;;;;;-0.95;72.03;100402.44;1624138;85;20916;-76
2022/11/19 11:59:32;;;;;;;8.48;6.22;;;;;;;-1.01;72.05;100403.13;1632565;85;20999;-76
2022/11/19 12:02:31;;;;;;;9.53;6.42;;;;;;;-1.03;72.15;100406.45;1650807;85;20993;-76
2022/11/19 12:05:17;;;;;;;9.60;6.22;;;;;;;-1.06;72.25;100394.56;1650046;85;20927;-76
2022/11/19 12:08:06;;;;;;;12.50;6.47;;;;;;;-1.06;72.23;100397.52;1625533;85;20927;-76
2022/11/19 12:11:23;;;;;;;8.90;5.70;;;;;;;-1.10;72.23;100403.33;1650272;85;20943;-76
2022/11/19 12:14:10;;;;;;;9.68;6.05;;;;;;;-1.13;72.27;100400.30;1682609;82;21029;-76
2022/11/19 12:17:21;;;;;;;8.38;6.15;;;;;;;-1.16;72.23;100395.55;1683372;83;20985;-76
2022/11/19 12:20:42;;;;;;;9.35;5.85;;;;;;;-1.18;72.44;100397.17;1686981;82;20952;-76
2022/11/19 12:23:50;;;;;;;13.35;6.97;;;;;;;-1.16;72.51;100391.33;1683179;83;20918;-75
2022/11/19 12:26:58;;;;;;;12.95;7.75;;;;;;;-1.13;72.54;100386.34;1690712;82;20943;-77
2022/11/19 12:30:07;;;;;;;11.10;7.67;;;;;;;-1.13;72.54;100391.82;1682440;83;21320;-76
2022/11/19 12:33:15;;;;;;;11.80;7.55;;;;;;;-1.16;72.63;100387.93;1683232;83;21447;-76
2022/11/19 12:36:31;;;;;;;15.95;8.23;;;;;;;-1.18;72.52;100381.55;1682923;82;21524;-76
2022/11/19 12:39:57;;;;;;;14.00;8.63;;;;;;;-1.15;72.69;100385.84;1543170;83;5001223;-76
2022/11/19 12:43:13;;;;;;;12.45;7.47;;;;;;;-1.20;72.56;100383.18;1563744;89;21049;-76
2022/11/19 12:46:33;;;;;;;13.22;7.83;;;;;;;-1.24;72.67;100373.77;1561891;88;21508;-76
2022/11/19 12:49:41;;;;;;;15.28;7.67;;;;;;;-1.25;72.66;100379.66;1559113;90;21584;-76
2022/11/19 12:52:50;;;;;;;10.98;7.85;;;;;;;-1.27;72.75;100382.56;1561931;89;20979;-76
2022/11/19 12:56:03;;;;;;;14.65;8.23;;;;;;;-1.24;72.76;100385.59;1560832;88;21597;-76
2022/11/19 12:59:22;;;;;;;12.45;7.72;;;;;;;-1.25;72.71;100379.66;1544428;89;21558;-77
2022/11/19 13:02:21;;;;;;;13.28;8.00;;;;;;;-1.22;72.81;100376.34;1558821;89;21598;-76
2022/11/19 13:05:17;;;;;;;13.45;8.83;;;;;;;-1.20;72.76;100371.77;1560709;88;20964;-76
2022/11/19 13:08:12;;;;;;;11.25;8.10;;;;;;;-1.19;72.82;100365.87;1560787;89;21630;-76
2022/11/19 13:11:26;;;;;;;15.15;8.65;;;;;;;-1.19;72.84;100365.87;1564131;89;21020;-78
2022/11/19 13:14:28;;;;;;;15.70;8.40;;;;;;;-1.16;72.84;100368.91;1657255;83;21005;-75
2022/11/19 13:17:18;;;;;;;14.00;8.10;;;;;;;-1.15;72.93;100373.16;1683251;83;20965;-79
2022/11/19 13:20:22;;;;;;;12.40;8.80;;;;;;;-1.16;72.89;100368.91;1686317;83;20907;-75
2022/11/19 13:23:08;;;;;;;11.43;8.20;;;;;;;-1.13;72.90;100367.72;1680155;83;20976;-76